sensor_id;sensor_type;location;lat;lon;timestamp;P1;durP1;ratioP1;P2;durP2;ratioP2
65370;SDS011;58485;59.934;30.352;2022-07-30T00:00:22;5.15;;;4.85;;
65370;SDS011;58485;59.934;30.352;2022-07-30T00:01:13;5.20;;;4.80;;
65370;SDS011;58485;59.934;30.352;2022-07-30T00:02:05;4.95;;;4.55;;
65370;SDS011;58485;59.934;30.352;2022-07-30T00:02:56;4.65;;;4.35;;
65370;SDS011;58485;59.934;30.352;2022-07-30T00:03:49;4.82;;;4.15;;
65370;SDS011;58485;59.934;30.352;2022-07-30T00:04:40;5.07;;;4.55;;
65370;SDS011;58485;59.934;30.352;2022-07-30T00:05:32;4.95;;;4.45;;
65370;SDS011;58485;59.934;30.352;2022-07-30T00:06:23;8.82;;;5.40;;
65370;SDS011;58485;59.934;30.352;2022-07-30T00:07:17;5.60;;;5.07;;
65370;SDS011;58485;59.934;30.352;2022-07-30T00:08:08;5.60;;;5.13;;
65370;SDS011;58485;59.934;30.352;2022-07-30T00:09:01;4.78;;;4.47;;
65370;SDS011;58485;59.934;30.352;2022-07-30T00:09:52;5.15;;;4.72;;
65370;SDS011;58485;59.934;30.352;2022-07-30T00:10:44;4.75;;;4.45;;
65370;SDS011;58485;59.934;30.352;2022-07-30T00:11:35;4.88;;;4.47;;
65370;SDS011;58485;59.934;30.352;2022-07-30T00:12:28;4.55;;;4.15;;
65370;SDS011;58485;59.934;30.352;2022-07-30T00:13:19;7.43;;;4.63;;
65370;SDS011;58485;59.934;30.352;2022-07-30T00:14:11;5.20;;;4.50;;
65370;SDS011;58485;59.934;30.352;2022-07-30T00:15:02;5.70;;;4.47;;
65370;SDS011;58485;59.934;30.352;2022-07-30T00:15:56;4.75;;;4.35;;
65370;SDS011;58485;59.934;30.352;2022-07-30T00:16:47;5.05;;;4.55;;
65370;SDS011;58485;59.934;30.352;2022-07-30T00:17:39;4.50;;;4.03;;
65370;SDS011;58485;59.934;30.352;2022-07-30T00:18:31;5.60;;;4.72;;
65370;SDS011;58485;59.934;30.352;2022-07-30T00:19:23;4.30;;;3.90;;
65370;SDS011;58485;59.934;30.352;2022-07-30T00:20:14;4.20;;;3.90;;
65370;SDS011;58485;59.934;30.352;2022-07-30T00:21:06;4.28;;;3.97;;
65370;SDS011;58485;59.934;30.352;2022-07-30T00:21:58;3.92;;;3.63;;
65370;SDS011;58485;59.934;30.352;2022-07-30T00:22:51;4.72;;;4.07;;
65370;SDS011;58485;59.934;30.352;2022-07-30T00:23:43;3.90;;;3.65;;
65370;SDS011;58485;59.934;30.352;2022-07-30T00:24:35;4.10;;;3.70;;
65370;SDS011;58485;59.934;30.352;2022-07-30T00:25:26;6.50;;;3.92;;
65370;SDS011;58485;59.934;30.352;2022-07-30T00:26:18;3.65;;;3.42;;
65370;SDS011;58485;59.934;30.352;2022-07-30T00:27:10;3.28;;;3.08;;
65370;SDS011;58485;59.934;30.352;2022-07-30T00:28:03;5.15;;;3.17;;
65370;SDS011;58485;59.934;30.352;2022-07-30T00:28:55;3.83;;;3.53;;
65370;SDS011;58485;59.934;30.352;2022-07-30T00:29:47;3.42;;;3.13;;
65370;SDS011;58485;59.934;30.352;2022-07-30T00:30:38;3.35;;;3.15;;
65370;SDS011;58485;59.934;30.352;2022-07-30T00:31:31;3.70;;;3.40;;
65370;SDS011;58485;59.934;30.352;2022-07-30T00:32:22;3.78;;;3.50;;
65370;SDS011;58485;59.934;30.352;2022-07-30T00:33:14;3.50;;;3.25;;
65370;SDS011;58485;59.934;30.352;2022-07-30T00:34:05;3.20;;;2.90;;
65370;SDS011;58485;59.934;30.352;2022-07-30T00:34:58;5.05;;;3.30;;
65370;SDS011;58485;59.934;30.352;2022-07-30T00:35:50;3.30;;;3.10;;
65370;SDS011;58485;59.934;30.352;2022-07-30T00:36:42;2.97;;;2.63;;
65370;SDS011;58485;59.934;30.352;2022-07-30T00:37:33;3.30;;;3.00;;
65370;SDS011;58485;59.934;30.352;2022-07-30T00:38:27;3.63;;;3.33;;
65370;SDS011;58485;59.934;30.352;2022-07-30T00:39:18;2.88;;;2.67;;
65370;SDS011;58485;59.934;30.352;2022-07-30T00:40:10;3.28;;;3.00;;
65370;SDS011;58485;59.934;30.352;2022-07-30T00:41:02;3.03;;;2.72;;
65370;SDS011;58485;59.934;30.352;2022-07-30T00:41:55;3.42;;;3.13;;
65370;SDS011;58485;59.934;30.352;2022-07-30T00:42:47;3.20;;;3.00;;
65370;SDS011;58485;59.934;30.352;2022-07-30T00:43:40;2.67;;;2.47;;
65370;SDS011;58485;59.934;30.352;2022-07-30T00:44:31;3.35;;;2.50;;
65370;SDS011;58485;59.934;30.352;2022-07-30T00:45:23;2.88;;;2.67;;
65370;SDS011;58485;59.934;30.352;2022-07-30T00:46:17;4.70;;;2.65;;
65370;SDS011;58485;59.934;30.352;2022-07-30T00:47:09;2.72;;;2.53;;
65370;SDS011;58485;59.934;30.352;2022-07-30T00:48:00;2.70;;;2.50;;
65370;SDS011;58485;59.934;30.352;2022-07-30T00:48:52;2.58;;;2.38;;
65370;SDS011;58485;59.934;30.352;2022-07-30T00:49:44;2.63;;;2.42;;
65370;SDS011;58485;59.934;30.352;2022-07-30T00:50:36;2.22;;;2.10;;
65370;SDS011;58485;59.934;30.352;2022-07-30T00:51:28;2.53;;;2.33;;
65370;SDS011;58485;59.934;30.352;2022-07-30T00:52:20;2.58;;;2.15;;
65370;SDS011;58485;59.934;30.352;2022-07-30T00:53:11;2.40;;;2.20;;
65370;SDS011;58485;59.934;30.352;2022-07-30T00:54:05;2.65;;;2.20;;
65370;SDS011;58485;59.934;30.352;2022-07-30T00:54:56;2.42;;;2.22;;
65370;SDS011;58485;59.934;30.352;2022-07-30T00:55:49;2.30;;;2.20;;
65370;SDS011;58485;59.934;30.352;2022-07-30T00:56:41;2.15;;;1.95;;
65370;SDS011;58485;59.934;30.352;2022-07-30T00:57:33;1.98;;;1.88;;
65370;SDS011;58485;59.934;30.352;2022-07-30T00:58:25;2.30;;;2.10;;
65370;SDS011;58485;59.934;30.352;2022-07-30T00:59:17;3.25;;;2.00;;
65370;SDS011;58485;59.934;30.352;2022-07-30T01:00:10;2.08;;;1.88;;
65370;SDS011;58485;59.934;30.352;2022-07-30T01:01:05;1.85;;;1.75;;
65370;SDS011;58485;59.934;30.352;2022-07-30T01:01:56;2.10;;;2.00;;
65370;SDS011;58485;59.934;30.352;2022-07-30T01:02:50;2.35;;;2.15;;
65370;SDS011;58485;59.934;30.352;2022-07-30T01:03:42;1.40;;;1.40;;
65370;SDS011;58485;59.934;30.352;2022-07-30T01:04:34;1.95;;;1.85;;
65370;SDS011;58485;59.934;30.352;2022-07-30T01:05:25;2.00;;;1.85;;
65370;SDS011;58485;59.934;30.352;2022-07-30T01:06:17;1.77;;;1.67;;
65370;SDS011;58485;59.934;30.352;2022-07-30T01:07:08;1.85;;;1.75;;
65370;SDS011;58485;59.934;30.352;2022-07-30T01:08:01;2.20;;;1.90;;
65370;SDS011;58485;59.934;30.352;2022-07-30T01:08:52;2.15;;;1.70;;
65370;SDS011;58485;59.934;30.352;2022-07-30T01:09:46;1.70;;;1.52;;
65370;SDS011;58485;59.934;30.352;2022-07-30T01:10:37;2.13;;;1.48;;
65370;SDS011;58485;59.934;30.352;2022-07-30T01:11:30;2.05;;;1.85;;
65370;SDS011;58485;59.934;30.352;2022-07-30T01:12:26;6.28;;;1.98;;
65370;SDS011;58485;59.934;30.352;2022-07-30T01:13:19;2.08;;;1.42;;
65370;SDS011;58485;59.934;30.352;2022-07-30T01:14:10;2.35;;;1.88;;
65370;SDS011;58485;59.934;30.352;2022-07-30T01:15:03;1.70;;;1.60;;
65370;SDS011;58485;59.934;30.352;2022-07-30T01:15:57;1.77;;;1.52;;
65370;SDS011;58485;59.934;30.352;2022-07-30T01:16:49;2.28;;;1.48;;
65370;SDS011;58485;59.934;30.352;2022-07-30T01:17:41;1.50;;;1.40;;
65370;SDS011;58485;59.934;30.352;2022-07-30T01:18:33;1.60;;;1.50;;
65370;SDS011;58485;59.934;30.352;2022-07-30T01:19:40;1.15;;;1.10;;
65370;SDS011;58485;59.934;30.352;2022-07-30T01:20:42;2.63;;;1.48;;
65370;SDS011;58485;59.934;30.352;2022-07-30T01:21:49;1.13;;;1.13;;
65370;SDS011;58485;59.934;30.352;2022-07-30T01:22:54;1.27;;;1.17;;
65370;SDS011;58485;59.934;30.352;2022-07-30T01:23:55;1.73;;;1.40;;
65370;SDS011;58485;59.934;30.352;2022-07-30T01:25:04;1.30;;;1.20;;
65370;SDS011;58485;59.934;30.352;2022-07-30T01:26:06;1.10;;;1.10;;
65370;SDS011;58485;59.934;30.352;2022-07-30T01:27:00;1.50;;;1.40;;
65370;SDS011;58485;59.934;30.352;2022-07-30T01:27:54;1.13;;;1.10;;
65370;SDS011;58485;59.934;30.352;2022-07-30T01:28:51;1.20;;;1.10;;
65370;SDS011;58485;59.934;30.352;2022-07-30T01:29:44;1.30;;;1.20;;
65370;SDS011;58485;59.934;30.352;2022-07-30T01:30:38;3.72;;;1.02;;
65370;SDS011;58485;59.934;30.352;2022-07-30T01:31:33;5.95;;;1.13;;
65370;SDS011;58485;59.934;30.352;2022-07-30T01:32:25;1.48;;;1.38;;
65370;SDS011;58485;59.934;30.352;2022-07-30T01:33:18;1.10;;;1.00;;
65370;SDS011;58485;59.934;30.352;2022-07-30T01:34:12;1.70;;;1.08;;
65370;SDS011;58485;59.934;30.352;2022-07-30T01:35:07;1.10;;;1.00;;
65370;SDS011;58485;59.934;30.352;2022-07-30T01:35:59;1.17;;;1.08;;
65370;SDS011;58485;59.934;30.352;2022-07-30T01:36:53;2.60;;;1.10;;
65370;SDS011;58485;59.934;30.352;2022-07-30T01:37:46;1.23;;;1.13;;
65370;SDS011;58485;59.934;30.352;2022-07-30T01:38:42;6.38;;;1.10;;
65370;SDS011;58485;59.934;30.352;2022-07-30T01:39:35;0.70;;;0.70;;
65370;SDS011;58485;59.934;30.352;2022-07-30T01:40:29;1.10;;;1.00;;
65370;SDS011;58485;59.934;30.352;2022-07-30T01:41:23;1.30;;;1.17;;
65370;SDS011;58485;59.934;30.352;2022-07-30T01:42:15;0.90;;;0.90;;
65370;SDS011;58485;59.934;30.352;2022-07-30T01:43:10;0.88;;;0.88;;
65370;SDS011;58485;59.934;30.352;2022-07-30T01:44:02;2.70;;;0.90;;
65370;SDS011;58485;59.934;30.352;2022-07-30T01:44:56;2.25;;;1.17;;
65370;SDS011;58485;59.934;30.352;2022-07-30T01:45:49;2.60;;;1.13;;
65370;SDS011;58485;59.934;30.352;2022-07-30T01:46:43;1.17;;;1.02;;
65370;SDS011;58485;59.934;30.352;2022-07-30T01:47:36;2.03;;;0.80;;
65370;SDS011;58485;59.934;30.352;2022-07-30T01:48:30;1.00;;;0.90;;
65370;SDS011;58485;59.934;30.352;2022-07-30T01:49:26;1.27;;;1.23;;
65370;SDS011;58485;59.934;30.352;2022-07-30T01:50:21;3.83;;;0.90;;
65370;SDS011;58485;59.934;30.352;2022-07-30T01:51:13;1.13;;;1.00;;
65370;SDS011;58485;59.934;30.352;2022-07-30T01:52:08;1.02;;;1.00;;
65370;SDS011;58485;59.934;30.352;2022-07-30T01:53:00;0.80;;;0.80;;
65370;SDS011;58485;59.934;30.352;2022-07-30T01:53:54;6.72;;;1.00;;
65370;SDS011;58485;59.934;30.352;2022-07-30T01:54:49;1.27;;;0.95;;
65370;SDS011;58485;59.934;30.352;2022-07-30T01:55:42;1.10;;;1.00;;
65370;SDS011;58485;59.934;30.352;2022-07-30T01:56:36;0.80;;;0.80;;
65370;SDS011;58485;59.934;30.352;2022-07-30T01:57:29;2.00;;;0.65;;
65370;SDS011;58485;59.934;30.352;2022-07-30T01:58:25;5.78;;;0.80;;
65370;SDS011;58485;59.934;30.352;2022-07-30T01:59:23;0.80;;;0.80;;
65370;SDS011;58485;59.934;30.352;2022-07-30T02:00:16;0.90;;;0.90;;
65370;SDS011;58485;59.934;30.352;2022-07-30T02:01:09;0.95;;;0.90;;
65370;SDS011;58485;59.934;30.352;2022-07-30T02:02:00;1.33;;;0.90;;
65370;SDS011;58485;59.934;30.352;2022-07-30T02:02:53;1.10;;;0.95;;
65370;SDS011;58485;59.934;30.352;2022-07-30T02:03:44;4.47;;;1.00;;
65370;SDS011;58485;59.934;30.352;2022-07-30T02:04:36;1.48;;;0.90;;
65370;SDS011;58485;59.934;30.352;2022-07-30T02:05:28;2.25;;;0.90;;
65370;SDS011;58485;59.934;30.352;2022-07-30T02:06:25;4.95;;;1.33;;
65370;SDS011;58485;59.934;30.352;2022-07-30T02:07:26;4.20;;;0.90;;
65370;SDS011;58485;59.934;30.352;2022-07-30T02:08:28;5.95;;;0.80;;
65370;SDS011;58485;59.934;30.352;2022-07-30T02:09:28;1.83;;;0.80;;
65370;SDS011;58485;59.934;30.352;2022-07-30T02:10:28;2.92;;;1.02;;
65370;SDS011;58485;59.934;30.352;2022-07-30T02:11:24;0.70;;;0.70;;
65370;SDS011;58485;59.934;30.352;2022-07-30T02:12:33;0.70;;;0.70;;
65370;SDS011;58485;59.934;30.352;2022-07-30T02:13:29;1.17;;;0.98;;
65370;SDS011;58485;59.934;30.352;2022-07-30T02:14:23;1.20;;;0.60;;
65370;SDS011;58485;59.934;30.352;2022-07-30T02:15:21;0.57;;;0.50;;
65370;SDS011;58485;59.934;30.352;2022-07-30T02:16:18;0.65;;;0.60;;
65370;SDS011;58485;59.934;30.352;2022-07-30T02:17:19;0.70;;;0.70;;
65370;SDS011;58485;59.934;30.352;2022-07-30T02:18:16;0.75;;;0.70;;
65370;SDS011;58485;59.934;30.352;2022-07-30T02:19:12;0.70;;;0.60;;
65370;SDS011;58485;59.934;30.352;2022-07-30T02:20:06;0.73;;;0.70;;
65370;SDS011;58485;59.934;30.352;2022-07-30T02:21:02;1.05;;;0.50;;
65370;SDS011;58485;59.934;30.352;2022-07-30T02:21:57;2.13;;;0.70;;
65370;SDS011;58485;59.934;30.352;2022-07-30T02:22:56;1.13;;;0.70;;
65370;SDS011;58485;59.934;30.352;2022-07-30T02:23:51;0.52;;;0.52;;
65370;SDS011;58485;59.934;30.352;2022-07-30T02:24:46;0.57;;;0.57;;
65370;SDS011;58485;59.934;30.352;2022-07-30T02:25:40;1.67;;;0.77;;
65370;SDS011;58485;59.934;30.352;2022-07-30T02:26:40;2.22;;;0.70;;
65370;SDS011;58485;59.934;30.352;2022-07-30T02:27:35;0.55;;;0.55;;
65370;SDS011;58485;59.934;30.352;2022-07-30T02:28:30;0.82;;;0.50;;
65370;SDS011;58485;59.934;30.352;2022-07-30T02:29:25;1.95;;;0.70;;
65370;SDS011;58485;59.934;30.352;2022-07-30T02:30:18;0.52;;;0.50;;
65370;SDS011;58485;59.934;30.352;2022-07-30T02:31:13;0.55;;;0.55;;
65370;SDS011;58485;59.934;30.352;2022-07-30T02:32:11;0.93;;;0.65;;
65370;SDS011;58485;59.934;30.352;2022-07-30T02:33:06;0.82;;;0.60;;
65370;SDS011;58485;59.934;30.352;2022-07-30T02:34:02;0.60;;;0.60;;
65370;SDS011;58485;59.934;30.352;2022-07-30T02:34:57;0.60;;;0.60;;
65370;SDS011;58485;59.934;30.352;2022-07-30T02:35:52;1.27;;;0.60;;
65370;SDS011;58485;59.934;30.352;2022-07-30T02:36:44;0.40;;;0.40;;
65370;SDS011;58485;59.934;30.352;2022-07-30T02:37:37;0.50;;;0.50;;
65370;SDS011;58485;59.934;30.352;2022-07-30T02:38:32;0.75;;;0.65;;
65370;SDS011;58485;59.934;30.352;2022-07-30T02:39:25;0.60;;;0.60;;
65370;SDS011;58485;59.934;30.352;2022-07-30T02:40:20;1.00;;;0.40;;
65370;SDS011;58485;59.934;30.352;2022-07-30T02:41:14;1.38;;;0.52;;
65370;SDS011;58485;59.934;30.352;2022-07-30T02:42:06;0.40;;;0.40;;
65370;SDS011;58485;59.934;30.352;2022-07-30T02:43:01;0.30;;;0.30;;
65370;SDS011;58485;59.934;30.352;2022-07-30T02:43:52;0.65;;;0.65;;
65370;SDS011;58485;59.934;30.352;2022-07-30T02:44:46;0.60;;;0.60;;
65370;SDS011;58485;59.934;30.352;2022-07-30T02:45:40;0.60;;;0.60;;
65370;SDS011;58485;59.934;30.352;2022-07-30T02:46:33;0.80;;;0.77;;
65370;SDS011;58485;59.934;30.352;2022-07-30T02:47:27;0.80;;;0.60;;
65370;SDS011;58485;59.934;30.352;2022-07-30T02:48:20;0.50;;;0.43;;
65370;SDS011;58485;59.934;30.352;2022-07-30T02:49:12;3.35;;;0.50;;
65370;SDS011;58485;59.934;30.352;2022-07-30T02:50:07;0.85;;;0.57;;
65370;SDS011;58485;59.934;30.352;2022-07-30T02:51:00;0.50;;;0.50;;
65370;SDS011;58485;59.934;30.352;2022-07-30T02:51:54;0.50;;;0.50;;
65370;SDS011;58485;59.934;30.352;2022-07-30T02:52:47;0.60;;;0.40;;
65370;SDS011;58485;59.934;30.352;2022-07-30T02:53:40;0.70;;;0.52;;
65370;SDS011;58485;59.934;30.352;2022-07-30T02:54:35;0.70;;;0.60;;
65370;SDS011;58485;59.934;30.352;2022-07-30T02:55:30;0.55;;;0.50;;
65370;SDS011;58485;59.934;30.352;2022-07-30T02:56:24;0.60;;;0.50;;
65370;SDS011;58485;59.934;30.352;2022-07-30T02:57:18;0.43;;;0.43;;
65370;SDS011;58485;59.934;30.352;2022-07-30T02:58:14;0.60;;;0.40;;
65370;SDS011;58485;59.934;30.352;2022-07-30T02:59:10;0.50;;;0.50;;
65370;SDS011;58485;59.934;30.352;2022-07-30T03:00:03;3.40;;;0.40;;
65370;SDS011;58485;59.934;30.352;2022-07-30T03:00:56;0.52;;;0.52;;
65370;SDS011;58485;59.934;30.352;2022-07-30T03:01:49;0.40;;;0.40;;
65370;SDS011;58485;59.934;30.352;2022-07-30T03:02:42;1.30;;;0.50;;
65370;SDS011;58485;59.934;30.352;2022-07-30T03:03:34;0.50;;;0.50;;
65370;SDS011;58485;59.934;30.352;2022-07-30T03:04:28;0.50;;;0.40;;
65370;SDS011;58485;59.934;30.352;2022-07-30T03:05:21;0.38;;;0.38;;
65370;SDS011;58485;59.934;30.352;2022-07-30T03:06:14;0.50;;;0.50;;
65370;SDS011;58485;59.934;30.352;2022-07-30T03:07:06;0.45;;;0.45;;
65370;SDS011;58485;59.934;30.352;2022-07-30T03:07:59;1.23;;;0.40;;
65370;SDS011;58485;59.934;30.352;2022-07-30T03:08:52;0.40;;;0.40;;
65370;SDS011;58485;59.934;30.352;2022-07-30T03:09:46;0.47;;;0.40;;
65370;SDS011;58485;59.934;30.352;2022-07-30T03:10:38;0.98;;;0.40;;
65370;SDS011;58485;59.934;30.352;2022-07-30T03:11:33;0.40;;;0.40;;
65370;SDS011;58485;59.934;30.352;2022-07-30T03:12:26;1.88;;;0.43;;
65370;SDS011;58485;59.934;30.352;2022-07-30T03:13:22;4.32;;;0.60;;
65370;SDS011;58485;59.934;30.352;2022-07-30T03:14:14;0.65;;;0.40;;
65370;SDS011;58485;59.934;30.352;2022-07-30T03:15:06;0.38;;;0.38;;
65370;SDS011;58485;59.934;30.352;2022-07-30T03:15:59;0.50;;;0.50;;
65370;SDS011;58485;59.934;30.352;2022-07-30T03:16:56;1.00;;;0.50;;
65370;SDS011;58485;59.934;30.352;2022-07-30T03:17:49;0.38;;;0.38;;
65370;SDS011;58485;59.934;30.352;2022-07-30T03:18:44;0.47;;;0.40;;
65370;SDS011;58485;59.934;30.352;2022-07-30T03:19:38;0.40;;;0.40;;
65370;SDS011;58485;59.934;30.352;2022-07-30T03:20:31;0.90;;;0.50;;
65370;SDS011;58485;59.934;30.352;2022-07-30T03:21:25;0.40;;;0.40;;
65370;SDS011;58485;59.934;30.352;2022-07-30T03:22:18;0.55;;;0.55;;
65370;SDS011;58485;59.934;30.352;2022-07-30T03:23:12;0.40;;;0.40;;
65370;SDS011;58485;59.934;30.352;2022-07-30T03:24:07;0.30;;;0.30;;
65370;SDS011;58485;59.934;30.352;2022-07-30T03:24:59;1.38;;;0.50;;
65370;SDS011;58485;59.934;30.352;2022-07-30T03:25:55;0.98;;;0.47;;
65370;SDS011;58485;59.934;30.352;2022-07-30T03:26:50;0.40;;;0.40;;
65370;SDS011;58485;59.934;30.352;2022-07-30T03:27:44;0.43;;;0.38;;
65370;SDS011;58485;59.934;30.352;2022-07-30T03:28:38;2.05;;;0.50;;
65370;SDS011;58485;59.934;30.352;2022-07-30T03:29:32;0.55;;;0.50;;
65370;SDS011;58485;59.934;30.352;2022-07-30T03:30:25;0.30;;;0.30;;
65370;SDS011;58485;59.934;30.352;2022-07-30T03:31:18;0.30;;;0.30;;
65370;SDS011;58485;59.934;30.352;2022-07-30T03:32:10;0.40;;;0.30;;
65370;SDS011;58485;59.934;30.352;2022-07-30T03:33:03;0.40;;;0.40;;
65370;SDS011;58485;59.934;30.352;2022-07-30T03:33:56;0.40;;;0.40;;
65370;SDS011;58485;59.934;30.352;2022-07-30T03:34:48;0.60;;;0.60;;
65370;SDS011;58485;59.934;30.352;2022-07-30T03:35:40;0.30;;;0.30;;
65370;SDS011;58485;59.934;30.352;2022-07-30T03:36:34;0.30;;;0.30;;
65370;SDS011;58485;59.934;30.352;2022-07-30T03:37:26;0.47;;;0.40;;
65370;SDS011;58485;59.934;30.352;2022-07-30T03:38:20;0.50;;;0.50;;
65370;SDS011;58485;59.934;30.352;2022-07-30T03:39:13;0.45;;;0.45;;
65370;SDS011;58485;59.934;30.352;2022-07-30T03:40:05;2.40;;;0.30;;
65370;SDS011;58485;59.934;30.352;2022-07-30T03:40:58;0.52;;;0.30;;
65370;SDS011;58485;59.934;30.352;2022-07-30T03:41:50;2.95;;;0.40;;
65370;SDS011;58485;59.934;30.352;2022-07-30T03:42:44;0.60;;;0.40;;
65370;SDS011;58485;59.934;30.352;2022-07-30T03:43:38;0.30;;;0.30;;
65370;SDS011;58485;59.934;30.352;2022-07-30T03:44:31;1.00;;;0.40;;
65370;SDS011;58485;59.934;30.352;2022-07-30T03:45:23;0.40;;;0.28;;
65370;SDS011;58485;59.934;30.352;2022-07-30T03:46:16;2.05;;;0.30;;
65370;SDS011;58485;59.934;30.352;2022-07-30T03:47:08;0.50;;;0.30;;
65370;SDS011;58485;59.934;30.352;2022-07-30T03:48:00;0.40;;;0.38;;
65370;SDS011;58485;59.934;30.352;2022-07-30T03:48:53;0.40;;;0.40;;
65370;SDS011;58485;59.934;30.352;2022-07-30T03:49:44;0.40;;;0.40;;
65370;SDS011;58485;59.934;30.352;2022-07-30T03:50:37;0.30;;;0.30;;
65370;SDS011;58485;59.934;30.352;2022-07-30T03:51:30;0.70;;;0.40;;
65370;SDS011;58485;59.934;30.352;2022-07-30T03:52:23;0.40;;;0.40;;
65370;SDS011;58485;59.934;30.352;2022-07-30T03:53:15;0.40;;;0.30;;
65370;SDS011;58485;59.934;30.352;2022-07-30T03:54:08;0.40;;;0.40;;
65370;SDS011;58485;59.934;30.352;2022-07-30T03:55:01;0.40;;;0.40;;
65370;SDS011;58485;59.934;30.352;2022-07-30T03:55:54;0.95;;;0.75;;
65370;SDS011;58485;59.934;30.352;2022-07-30T03:56:46;0.30;;;0.30;;
65370;SDS011;58485;59.934;30.352;2022-07-30T03:57:39;0.50;;;0.50;;
65370;SDS011;58485;59.934;30.352;2022-07-30T03:58:30;0.65;;;0.43;;
65370;SDS011;58485;59.934;30.352;2022-07-30T03:59:24;0.30;;;0.30;;
65370;SDS011;58485;59.934;30.352;2022-07-30T04:00:15;0.35;;;0.35;;
65370;SDS011;58485;59.934;30.352;2022-07-30T04:01:08;0.35;;;0.35;;
65370;SDS011;58485;59.934;30.352;2022-07-30T04:01:59;0.57;;;0.45;;
65370;SDS011;58485;59.934;30.352;2022-07-30T04:02:53;0.30;;;0.30;;
65370;SDS011;58485;59.934;30.352;2022-07-30T04:03:45;0.60;;;0.40;;
65370;SDS011;58485;59.934;30.352;2022-07-30T04:04:39;0.63;;;0.30;;
65370;SDS011;58485;59.934;30.352;2022-07-30T04:05:31;0.50;;;0.40;;
65370;SDS011;58485;59.934;30.352;2022-07-30T04:06:24;1.95;;;0.40;;
65370;SDS011;58485;59.934;30.352;2022-07-30T04:07:15;0.30;;;0.30;;
65370;SDS011;58485;59.934;30.352;2022-07-30T04:08:08;2.05;;;0.30;;
65370;SDS011;58485;59.934;30.352;2022-07-30T04:08:59;0.40;;;0.40;;
65370;SDS011;58485;59.934;30.352;2022-07-30T04:09:51;0.82;;;0.32;;
65370;SDS011;58485;59.934;30.352;2022-07-30T04:10:42;0.75;;;0.32;;
65370;SDS011;58485;59.934;30.352;2022-07-30T04:11:34;1.48;;;0.30;;
65370;SDS011;58485;59.934;30.352;2022-07-30T04:12:26;0.30;;;0.30;;
65370;SDS011;58485;59.934;30.352;2022-07-30T04:13:17;0.40;;;0.40;;
65370;SDS011;58485;59.934;30.352;2022-07-30T04:14:09;0.68;;;0.52;;
65370;SDS011;58485;59.934;30.352;2022-07-30T04:15:02;0.47;;;0.43;;
65370;SDS011;58485;59.934;30.352;2022-07-30T04:15:58;0.20;;;0.20;;
65370;SDS011;58485;59.934;30.352;2022-07-30T04:16:56;0.40;;;0.40;;
65370;SDS011;58485;59.934;30.352;2022-07-30T04:17:55;0.47;;;0.47;;
65370;SDS011;58485;59.934;30.352;2022-07-30T04:18:52;3.70;;;0.40;;
65370;SDS011;58485;59.934;30.352;2022-07-30T04:19:47;0.20;;;0.20;;
65370;SDS011;58485;59.934;30.352;2022-07-30T04:20:42;0.20;;;0.20;;
65370;SDS011;58485;59.934;30.352;2022-07-30T04:21:37;0.30;;;0.30;;
65370;SDS011;58485;59.934;30.352;2022-07-30T04:22:31;0.65;;;0.40;;
65370;SDS011;58485;59.934;30.352;2022-07-30T04:23:26;0.30;;;0.30;;
65370;SDS011;58485;59.934;30.352;2022-07-30T04:24:18;0.30;;;0.30;;
65370;SDS011;58485;59.934;30.352;2022-07-30T04:25:10;0.35;;;0.30;;
65370;SDS011;58485;59.934;30.352;2022-07-30T04:26:03;0.47;;;0.40;;
65370;SDS011;58485;59.934;30.352;2022-07-30T04:26:55;0.40;;;0.40;;
65370;SDS011;58485;59.934;30.352;2022-07-30T04:27:48;0.88;;;0.52;;
65370;SDS011;58485;59.934;30.352;2022-07-30T04:28:41;0.43;;;0.43;;
65370;SDS011;58485;59.934;30.352;2022-07-30T04:29:32;0.43;;;0.43;;
65370;SDS011;58485;59.934;30.352;2022-07-30T04:30:27;0.57;;;0.35;;
65370;SDS011;58485;59.934;30.352;2022-07-30T04:31:18;0.30;;;0.30;;
65370;SDS011;58485;59.934;30.352;2022-07-30T04:32:11;0.55;;;0.35;;
65370;SDS011;58485;59.934;30.352;2022-07-30T04:33:03;0.38;;;0.38;;
65370;SDS011;58485;59.934;30.352;2022-07-30T04:33:55;0.70;;;0.30;;
65370;SDS011;58485;59.934;30.352;2022-07-30T04:34:47;0.93;;;0.55;;
65370;SDS011;58485;59.934;30.352;2022-07-30T04:35:40;0.40;;;0.40;;
65370;SDS011;58485;59.934;30.352;2022-07-30T04:36:32;0.32;;;0.32;;
65370;SDS011;58485;59.934;30.352;2022-07-30T04:37:25;0.30;;;0.30;;
65370;SDS011;58485;59.934;30.352;2022-07-30T04:38:17;0.55;;;0.40;;
65370;SDS011;58485;59.934;30.352;2022-07-30T04:39:10;0.50;;;0.50;;
65370;SDS011;58485;59.934;30.352;2022-07-30T04:40:02;0.40;;;0.40;;
65370;SDS011;58485;59.934;30.352;2022-07-30T04:40:56;1.30;;;0.30;;
65370;SDS011;58485;59.934;30.352;2022-07-30T04:41:47;0.30;;;0.30;;
65370;SDS011;58485;59.934;30.352;2022-07-30T04:42:39;0.52;;;0.40;;
65370;SDS011;58485;59.934;30.352;2022-07-30T04:43:30;0.28;;;0.28;;
65370;SDS011;58485;59.934;30.352;2022-07-30T04:44:23;0.30;;;0.30;;
65370;SDS011;58485;59.934;30.352;2022-07-30T04:45:14;0.40;;;0.40;;
65370;SDS011;58485;59.934;30.352;2022-07-30T04:46:10;0.35;;;0.30;;
65370;SDS011;58485;59.934;30.352;2022-07-30T04:47:01;0.20;;;0.20;;
65370;SDS011;58485;59.934;30.352;2022-07-30T04:47:54;0.45;;;0.30;;
65370;SDS011;58485;59.934;30.352;2022-07-30T04:48:45;0.20;;;0.20;;
65370;SDS011;58485;59.934;30.352;2022-07-30T04:49:37;0.50;;;0.50;;
65370;SDS011;58485;59.934;30.352;2022-07-30T04:50:30;0.40;;;0.40;;
65370;SDS011;58485;59.934;30.352;2022-07-30T04:51:27;0.93;;;0.43;;
65370;SDS011;58485;59.934;30.352;2022-07-30T04:52:22;0.63;;;0.40;;
65370;SDS011;58485;59.934;30.352;2022-07-30T04:53:15;0.30;;;0.30;;
65370;SDS011;58485;59.934;30.352;2022-07-30T04:54:09;0.57;;;0.30;;
65370;SDS011;58485;59.934;30.352;2022-07-30T04:55:05;0.30;;;0.30;;
65370;SDS011;58485;59.934;30.352;2022-07-30T04:55:58;0.52;;;0.40;;
65370;SDS011;58485;59.934;30.352;2022-07-30T04:56:51;0.20;;;0.20;;
65370;SDS011;58485;59.934;30.352;2022-07-30T04:57:43;0.30;;;0.30;;
65370;SDS011;58485;59.934;30.352;2022-07-30T04:58:38;0.57;;;0.30;;
65370;SDS011;58485;59.934;30.352;2022-07-30T04:59:30;1.25;;;0.38;;
65370;SDS011;58485;59.934;30.352;2022-07-30T05:00:23;0.30;;;0.30;;
65370;SDS011;58485;59.934;30.352;2022-07-30T05:01:17;1.30;;;0.43;;
65370;SDS011;58485;59.934;30.352;2022-07-30T05:02:14;1.35;;;0.30;;
65370;SDS011;58485;59.934;30.352;2022-07-30T05:03:10;0.30;;;0.30;;
65370;SDS011;58485;59.934;30.352;2022-07-30T05:04:04;0.20;;;0.20;;
65370;SDS011;58485;59.934;30.352;2022-07-30T05:04:57;0.40;;;0.40;;
65370;SDS011;58485;59.934;30.352;2022-07-30T05:05:51;0.98;;;0.50;;
65370;SDS011;58485;59.934;30.352;2022-07-30T05:06:45;0.28;;;0.28;;
65370;SDS011;58485;59.934;30.352;2022-07-30T05:07:38;0.40;;;0.40;;
65370;SDS011;58485;59.934;30.352;2022-07-30T05:08:29;0.30;;;0.30;;
65370;SDS011;58485;59.934;30.352;2022-07-30T05:09:22;0.32;;;0.30;;
65370;SDS011;58485;59.934;30.352;2022-07-30T05:10:13;0.20;;;0.20;;
65370;SDS011;58485;59.934;30.352;2022-07-30T05:11:05;0.30;;;0.30;;
65370;SDS011;58485;59.934;30.352;2022-07-30T05:12:01;0.63;;;0.30;;
65370;SDS011;58485;59.934;30.352;2022-07-30T05:12:53;0.30;;;0.30;;
65370;SDS011;58485;59.934;30.352;2022-07-30T05:13:45;0.40;;;0.40;;
65370;SDS011;58485;59.934;30.352;2022-07-30T05:14:38;0.40;;;0.40;;
65370;SDS011;58485;59.934;30.352;2022-07-30T05:15:30;0.40;;;0.30;;
65370;SDS011;58485;59.934;30.352;2022-07-30T05:16:23;0.30;;;0.28;;
65370;SDS011;58485;59.934;30.352;2022-07-30T05:17:15;0.40;;;0.40;;